SKW4758 KBIL-KDEN
Flight info
| Callsign | SKW4758 |
|---|---|
| Flight time | 1h 7m |
| Altitude | 39000 |
| Route | BIL BOY TOFUU FLATI5 |
| Aircraft | CRJ7/M-SDFGIRWY/S |
Departure
| Time | 2026-05-04 14:33 |
|---|---|
| Airport | Billings Logan International Airport (KBIL) |
Arrival
| Time | 2026-05-04 15:41 |
|---|---|
| Airport | Denver International Airport (KDEN) |
| Time | Latitude | Longitude | Altitude | Speed | Heading |
|---|---|---|---|---|---|
| 2026-05-04 14:14 | 45.80453 | -108.53513 | 3554 ft | 0 kts | 216° |
| 2026-05-04 14:24 | 45.80466 | -108.53500 | 3552 ft | 4 kts | 210° |
| 2026-05-04 14:24 | 45.80490 | -108.53485 | 3555 ft | 4 kts | 194° |
| 2026-05-04 14:24 | 45.80516 | -108.53484 | 3556 ft | 4 kts | 162° |
| 2026-05-04 14:25 | 45.80531 | -108.53503 | 3553 ft | 1 kts | 112° |
| 2026-05-04 14:25 | 45.80531 | -108.53504 | 3553 ft | 0 kts | 112° |
| 2026-05-04 14:28 | 45.80528 | -108.53493 | 3554 ft | 3 kts | 112° |
| 2026-05-04 14:29 | 45.80480 | -108.53281 | 3555 ft | 11 kts | 98° |
| 2026-05-04 14:29 | 45.80477 | -108.53103 | 3555 ft | 10 kts | 90° |
| 2026-05-04 14:30 | 45.80459 | -108.52986 | 3552 ft | 14 kts | 110° |
| 2026-05-04 14:30 | 45.80418 | -108.52837 | 3553 ft | 19 kts | 111° |
| 2026-05-04 14:30 | 45.80312 | -108.52459 | 3552 ft | 20 kts | 112° |
| 2026-05-04 14:31 | 45.80261 | -108.52282 | 3550 ft | 18 kts | 112° |
| 2026-05-04 14:31 | 45.80171 | -108.51989 | 3547 ft | 16 kts | 115° |
| 2026-05-04 14:32 | 45.80130 | -108.51723 | 3546 ft | 7 kts | 50° |
| 2026-05-04 14:32 | 45.80175 | -108.51684 | 3544 ft | 9 kts | 24° |
| 2026-05-04 14:32 | 45.80219 | -108.51677 | 3543 ft | 5 kts | 333° |
| 2026-05-04 14:32 | 45.80249 | -108.51774 | 3546 ft | 31 kts | 286° |
| 2026-05-04 14:33 | 45.80399 | -108.52346 | 3552 ft | 90 kts | 292° |
| 2026-05-04 14:33 | 45.80675 | -108.53336 | 3560 ft | 134 kts | 292° |
| 2026-05-04 14:33 | 45.81059 | -108.54708 | 3750 ft | 153 kts | 292° |
| 2026-05-04 14:33 | 45.81441 | -108.56162 | 4264 ft | 159 kts | 281° |
| 2026-05-04 14:34 | 45.81202 | -108.57834 | 4365 ft | 191 kts | 236° |
| 2026-05-04 14:34 | 45.80159 | -108.58871 | 4867 ft | 196 kts | 193° |
| 2026-05-04 14:34 | 45.78869 | -108.59065 | 5625 ft | 181 kts | 181° |
| 2026-05-04 14:34 | 45.77573 | -108.59075 | 5963 ft | 196 kts | 177° |
| 2026-05-04 14:35 | 45.76199 | -108.58948 | 6471 ft | 195 kts | 173° |
| 2026-05-04 14:35 | 45.74779 | -108.58736 | 6702 ft | 216 kts | 172° |
| 2026-05-04 14:35 | 45.73287 | -108.58484 | 7283 ft | 207 kts | 172° |
| 2026-05-04 14:35 | 45.71855 | -108.58243 | 7781 ft | 214 kts | 173° |
| 2026-05-04 14:36 | 45.70287 | -108.58013 | 7750 ft | 245 kts | 174° |
| 2026-05-04 14:36 | 45.68489 | -108.57792 | 7597 ft | 276 kts | 175° |
| 2026-05-04 14:36 | 45.66489 | -108.57558 | 7854 ft | 298 kts | 175° |
| 2026-05-04 14:36 | 45.64401 | -108.57315 | 8593 ft | 300 kts | 175° |
| 2026-05-04 14:37 | 45.62399 | -108.57105 | 9936 ft | 280 kts | 175° |
| 2026-05-04 14:37 | 45.60390 | -108.56866 | 10333 ft | 294 kts | 175° |
| 2026-05-04 14:37 | 45.58324 | -108.56564 | 10766 ft | 307 kts | 175° |
| 2026-05-04 14:37 | 45.56115 | -108.56232 | 10902 ft | 330 kts | 175° |
| 2026-05-04 14:38 | 45.53867 | -108.55905 | 11124 ft | 347 kts | 176° |
| 2026-05-04 14:38 | 45.51424 | -108.55576 | 11595 ft | 355 kts | 176° |
| 2026-05-04 14:38 | 45.48952 | -108.55255 | 12206 ft | 359 kts | 177° |
| 2026-05-04 14:38 | 45.46477 | -108.54938 | 12767 ft | 364 kts | 178° |
| 2026-05-04 14:39 | 45.43942 | -108.54614 | 13322 ft | 368 kts | 178° |
| 2026-05-04 14:39 | 45.41347 | -108.54281 | 13948 ft | 369 kts | 179° |
| 2026-05-04 14:39 | 45.38813 | -108.53960 | 14498 ft | 372 kts | 178° |
| 2026-05-04 14:40 | 45.33607 | -108.53288 | 15520 ft | 379 kts | 178° |
| 2026-05-04 14:40 | 45.31059 | -108.52959 | 15985 ft | 383 kts | 178° |
| 2026-05-04 14:40 | 45.28389 | -108.52613 | 16464 ft | 387 kts | 178° |
| 2026-05-04 14:40 | 45.25701 | -108.52271 | 16924 ft | 390 kts | 178° |
| 2026-05-04 14:41 | 45.22985 | -108.51923 | 17354 ft | 393 kts | 178° |
| 2026-05-04 14:41 | 45.20243 | -108.51570 | 17757 ft | 397 kts | 178° |
| 2026-05-04 14:41 | 45.14698 | -108.50863 | 18524 ft | 402 kts | 178° |
| 2026-05-04 14:42 | 45.09092 | -108.50143 | 19195 ft | 406 kts | 178° |
| 2026-05-04 14:42 | 45.06364 | -108.49795 | 19527 ft | 408 kts | 178° |
| 2026-05-04 14:42 | 45.03548 | -108.49437 | 20134 ft | 399 kts | 178° |
| 2026-05-04 14:43 | 45.00838 | -108.49091 | 20995 ft | 385 kts | 179° |
| 2026-05-04 14:43 | 44.98215 | -108.48758 | 21746 ft | 373 kts | 179° |
| 2026-05-04 14:43 | 44.95643 | -108.48434 | 22256 ft | 370 kts | 179° |
| 2026-05-04 14:43 | 44.93110 | -108.48115 | 22570 ft | 371 kts | 179° |
| 2026-05-04 14:44 | 44.90536 | -108.47793 | 22867 ft | 373 kts | 179° |
| 2026-05-04 14:44 | 44.87944 | -108.47470 | 23143 ft | 374 kts | 179° |
| 2026-05-04 14:44 | 44.85346 | -108.47149 | 23389 ft | 376 kts | 179° |
| 2026-05-04 14:44 | 44.82733 | -108.46826 | 23636 ft | 378 kts | 179° |
| 2026-05-04 14:45 | 44.80210 | -108.46515 | 23848 ft | 379 kts | 179° |
| 2026-05-04 14:45 | 44.77585 | -108.46202 | 24107 ft | 379 kts | 179° |
| 2026-05-04 14:45 | 44.75021 | -108.45890 | 24192 ft | 385 kts | 179° |
| 2026-05-04 14:45 | 44.72326 | -108.45550 | 24189 ft | 393 kts | 179° |
| 2026-05-04 14:46 | 44.69667 | -108.45208 | 24205 ft | 399 kts | 179° |
| 2026-05-04 14:46 | 44.66877 | -108.44851 | 24215 ft | 406 kts | 179° |
| 2026-05-04 14:46 | 44.64042 | -108.44495 | 24219 ft | 412 kts | 178° |
| 2026-05-04 14:46 | 44.61206 | -108.44133 | 24237 ft | 417 kts | 178° |
| 2026-05-04 14:47 | 44.58296 | -108.43761 | 24255 ft | 422 kts | 178° |
| 2026-05-04 14:47 | 44.55453 | -108.43405 | 24258 ft | 427 kts | 178° |
| 2026-05-04 14:47 | 44.52481 | -108.43029 | 24271 ft | 432 kts | 178° |
| 2026-05-04 14:47 | 44.49474 | -108.42651 | 24354 ft | 434 kts | 178° |
| 2026-05-04 14:48 | 44.46464 | -108.42273 | 24474 ft | 435 kts | 178° |
| 2026-05-04 14:48 | 44.43445 | -108.41895 | 24585 ft | 435 kts | 178° |
| 2026-05-04 14:48 | 44.40428 | -108.41521 | 24704 ft | 436 kts | 178° |
| 2026-05-04 14:48 | 44.37402 | -108.41140 | 24827 ft | 437 kts | 178° |
| 2026-05-04 14:49 | 44.34373 | -108.40763 | 24932 ft | 437 kts | 178° |
| 2026-05-04 14:49 | 44.31395 | -108.40391 | 25040 ft | 438 kts | 178° |
| 2026-05-04 14:49 | 44.28412 | -108.40017 | 25131 ft | 439 kts | 178° |
| 2026-05-04 14:49 | 44.25370 | -108.39641 | 25234 ft | 439 kts | 178° |
| 2026-05-04 14:50 | 44.22323 | -108.39262 | 25319 ft | 440 kts | 178° |
| 2026-05-04 14:50 | 44.19277 | -108.38887 | 25407 ft | 440 kts | 178° |
| 2026-05-04 14:50 | 44.16218 | -108.38504 | 25506 ft | 441 kts | 178° |
| 2026-05-04 14:50 | 44.13158 | -108.38123 | 25587 ft | 442 kts | 178° |
| 2026-05-04 14:51 | 44.10133 | -108.37754 | 25688 ft | 442 kts | 178° |
| 2026-05-04 14:51 | 44.07065 | -108.37371 | 25778 ft | 443 kts | 178° |
| 2026-05-04 14:51 | 44.04123 | -108.37007 | 25868 ft | 443 kts | 179° |
| 2026-05-04 14:51 | 44.01052 | -108.36631 | 25986 ft | 443 kts | 178° |
| 2026-05-04 14:52 | 43.97978 | -108.36252 | 26055 ft | 444 kts | 178° |
| 2026-05-04 14:52 | 43.94900 | -108.35871 | 26163 ft | 444 kts | 178° |
| 2026-05-04 14:52 | 43.91819 | -108.35491 | 26239 ft | 445 kts | 178° |
| 2026-05-04 14:52 | 43.88736 | -108.35116 | 26312 ft | 446 kts | 178° |
| 2026-05-04 14:53 | 43.85655 | -108.34739 | 26462 ft | 444 kts | 178° |
| 2026-05-04 14:53 | 43.82577 | -108.34355 | 26550 ft | 445 kts | 178° |
| 2026-05-04 14:53 | 43.79598 | -108.33986 | 26630 ft | 445 kts | 178° |
| 2026-05-04 14:53 | 43.76512 | -108.33607 | 26692 ft | 445 kts | 178° |
| 2026-05-04 14:54 | 43.73422 | -108.33228 | 26757 ft | 446 kts | 178° |
| 2026-05-04 14:54 | 43.70327 | -108.32851 | 26827 ft | 446 kts | 178° |
| 2026-05-04 14:54 | 43.67237 | -108.32475 | 26888 ft | 447 kts | 178° |
| 2026-05-04 14:54 | 43.64140 | -108.32096 | 26958 ft | 447 kts | 178° |
| 2026-05-04 14:55 | 43.61038 | -108.31715 | 26999 ft | 447 kts | 178° |
| 2026-05-04 14:55 | 43.57938 | -108.31340 | 26913 ft | 448 kts | 177° |
| 2026-05-04 14:55 | 43.54936 | -108.30975 | 26972 ft | 448 kts | 178° |
| 2026-05-04 14:55 | 43.51834 | -108.30598 | 27021 ft | 448 kts | 178° |
| 2026-05-04 14:56 | 43.48725 | -108.30213 | 27140 ft | 447 kts | 176° |
| 2026-05-04 14:56 | 43.45648 | -108.29542 | 27205 ft | 449 kts | 171° |
| 2026-05-04 14:56 | 43.42592 | -108.28599 | 27253 ft | 450 kts | 168° |
| 2026-05-04 14:56 | 43.39567 | -108.27471 | 27297 ft | 451 kts | 165° |
| 2026-05-04 14:57 | 43.36566 | -108.26223 | 27341 ft | 451 kts | 165° |
| 2026-05-04 14:57 | 43.33561 | -108.24968 | 27396 ft | 451 kts | 165° |
| 2026-05-04 14:57 | 43.30546 | -108.23752 | 27449 ft | 452 kts | 166° |
| 2026-05-04 14:57 | 43.27637 | -108.22613 | 27487 ft | 452 kts | 166° |
| 2026-05-04 14:58 | 43.24611 | -108.21435 | 27538 ft | 452 kts | 166° |
| 2026-05-04 14:58 | 43.21586 | -108.20254 | 27582 ft | 452 kts | 166° |
| 2026-05-04 14:58 | 43.18555 | -108.19074 | 27629 ft | 453 kts | 166° |
| 2026-05-04 14:58 | 43.16551 | -108.18297 | 27651 ft | 453 kts | 166° |
| 2026-05-04 14:59 | 43.12502 | -108.16723 | 27739 ft | 452 kts | 166° |
| 2026-05-04 14:59 | 43.09475 | -108.15544 | 27787 ft | 452 kts | 166° |
| 2026-05-04 14:59 | 43.03534 | -108.13244 | 27845 ft | 452 kts | 166° |
| 2026-05-04 15:00 | 43.00506 | -108.12071 | 27875 ft | 452 kts | 166° |
| 2026-05-04 15:00 | 42.97520 | -108.10921 | 27883 ft | 453 kts | 166° |
| 2026-05-04 15:00 | 42.94644 | -108.09809 | 27893 ft | 453 kts | 166° |
| 2026-05-04 15:01 | 42.88618 | -108.07487 | 27920 ft | 453 kts | 166° |
| 2026-05-04 15:01 | 42.85583 | -108.06318 | 27945 ft | 453 kts | 166° |
| 2026-05-04 15:01 | 42.82547 | -108.05149 | 27973 ft | 453 kts | 166° |
| 2026-05-04 15:01 | 42.79511 | -108.03984 | 28003 ft | 454 kts | 166° |
| 2026-05-04 15:02 | 42.73571 | -108.01706 | 28078 ft | 452 kts | 166° |
| 2026-05-04 15:02 | 42.67507 | -107.99386 | 28089 ft | 453 kts | 166° |
| 2026-05-04 15:03 | 42.61469 | -107.97079 | 28156 ft | 451 kts | 166° |
| 2026-05-04 15:03 | 42.55415 | -107.94774 | 28181 ft | 452 kts | 167° |
| 2026-05-04 15:04 | 42.50491 | -107.92897 | 28197 ft | 452 kts | 167° |
| 2026-05-04 15:04 | 42.44424 | -107.90594 | 28237 ft | 453 kts | 167° |
| 2026-05-04 15:05 | 42.38359 | -107.88294 | 28264 ft | 452 kts | 167° |
| 2026-05-04 15:05 | 42.32292 | -107.86002 | 28296 ft | 453 kts | 167° |
| 2026-05-04 15:06 | 42.26323 | -107.83749 | 28343 ft | 453 kts | 167° |
| 2026-05-04 15:07 | 42.17226 | -107.80320 | 28399 ft | 452 kts | 167° |
| 2026-05-04 15:07 | 42.11158 | -107.78042 | 28426 ft | 453 kts | 167° |
| 2026-05-04 15:08 | 42.05092 | -107.75768 | 28448 ft | 453 kts | 167° |
| 2026-05-04 15:08 | 41.99376 | -107.73627 | 28493 ft | 452 kts | 168° |
| 2026-05-04 15:09 | 41.93307 | -107.71360 | 28499 ft | 453 kts | 167° |
| 2026-05-04 15:09 | 41.90289 | -107.70237 | 28708 ft | 449 kts | 168° |
| 2026-05-04 15:09 | 41.87289 | -107.69117 | 28804 ft | 448 kts | 168° |
| 2026-05-04 15:10 | 41.81531 | -107.65933 | 28851 ft | 456 kts | 147° |
| 2026-05-04 15:10 | 41.79029 | -107.63296 | 28924 ft | 457 kts | 141° |
| 2026-05-04 15:10 | 41.74669 | -107.57059 | 29060 ft | 461 kts | 131° |
| 2026-05-04 15:11 | 41.72716 | -107.53923 | 29365 ft | 460 kts | 132° |
| 2026-05-04 15:11 | 41.70636 | -107.50680 | 29654 ft | 459 kts | 134° |
| 2026-05-04 15:11 | 41.68498 | -107.47514 | 29936 ft | 458 kts | 135° |
| 2026-05-04 15:11 | 41.66353 | -107.44356 | 30124 ft | 459 kts | 134° |
| 2026-05-04 15:12 | 41.64213 | -107.41180 | 30298 ft | 460 kts | 135° |
| 2026-05-04 15:12 | 41.62220 | -107.38226 | 30518 ft | 460 kts | 135° |
| 2026-05-04 15:12 | 41.60075 | -107.35050 | 30685 ft | 460 kts | 134° |
| 2026-05-04 15:12 | 41.57936 | -107.31887 | 30892 ft | 459 kts | 134° |
| 2026-05-04 15:13 | 41.55790 | -107.28713 | 31096 ft | 459 kts | 134° |
| 2026-05-04 15:13 | 41.53655 | -107.25559 | 31328 ft | 458 kts | 134° |
| 2026-05-04 15:13 | 41.51522 | -107.22414 | 31533 ft | 457 kts | 134° |
| 2026-05-04 15:13 | 41.49391 | -107.19277 | 31718 ft | 456 kts | 134° |
| 2026-05-04 15:14 | 41.47334 | -107.16248 | 31893 ft | 455 kts | 134° |
| 2026-05-04 15:14 | 41.45210 | -107.13122 | 32114 ft | 455 kts | 134° |
| 2026-05-04 15:14 | 41.43093 | -107.09996 | 32312 ft | 454 kts | 134° |
| 2026-05-04 15:14 | 41.40963 | -107.06887 | 32509 ft | 453 kts | 134° |
| 2026-05-04 15:15 | 41.38976 | -107.03970 | 32668 ft | 453 kts | 134° |
| 2026-05-04 15:15 | 41.34716 | -106.97723 | 32787 ft | 458 kts | 134° |
| 2026-05-04 15:16 | 41.28240 | -106.88256 | 32810 ft | 468 kts | 134° |
| 2026-05-04 15:16 | 41.23822 | -106.81821 | 32937 ft | 474 kts | 134° |
| 2026-05-04 15:17 | 41.21674 | -106.78690 | 32913 ft | 477 kts | 134° |
| 2026-05-04 15:17 | 41.15033 | -106.69053 | 32869 ft | 485 kts | 135° |
| 2026-05-04 15:18 | 41.10455 | -106.62422 | 32843 ft | 490 kts | 135° |
| 2026-05-04 15:19 | 41.03504 | -106.52383 | 32855 ft | 496 kts | 135° |
| 2026-05-04 15:19 | 40.96463 | -106.42263 | 32838 ft | 501 kts | 136° |
| 2026-05-04 15:20 | 40.91808 | -106.35578 | 32853 ft | 504 kts | 136° |
| 2026-05-04 15:20 | 40.87198 | -106.28963 | 32838 ft | 506 kts | 134° |
| 2026-05-04 15:21 | 40.83246 | -106.21294 | 32185 ft | 498 kts | 123° |
| 2026-05-04 15:21 | 40.80157 | -106.13254 | 30951 ft | 491 kts | 116° |
| 2026-05-04 15:22 | 40.78792 | -106.09149 | 30368 ft | 487 kts | 115° |
| 2026-05-04 15:22 | 40.77431 | -106.05085 | 29770 ft | 482 kts | 116° |
| 2026-05-04 15:22 | 40.74680 | -105.97352 | 28493 ft | 476 kts | 117° |
| 2026-05-04 15:23 | 40.73279 | -105.93414 | 27874 ft | 472 kts | 117° |
| 2026-05-04 15:23 | 40.71879 | -105.89505 | 27240 ft | 469 kts | 117° |
| 2026-05-04 15:23 | 40.70486 | -105.85625 | 26624 ft | 467 kts | 117° |
| 2026-05-04 15:23 | 40.69101 | -105.81768 | 26081 ft | 464 kts | 117° |
| 2026-05-04 15:24 | 40.66428 | -105.74338 | 25004 ft | 448 kts | 117° |
| 2026-05-04 15:24 | 40.63811 | -105.67050 | 24001 ft | 432 kts | 117° |
| 2026-05-04 15:25 | 40.62599 | -105.63721 | 23523 ft | 428 kts | 117° |
| 2026-05-04 15:25 | 40.61315 | -105.60199 | 22979 ft | 425 kts | 116° |
| 2026-05-04 15:25 | 40.60052 | -105.56693 | 22411 ft | 422 kts | 116° |
| 2026-05-04 15:26 | 40.57565 | -105.49824 | 21295 ft | 414 kts | 116° |
| 2026-05-04 15:26 | 40.56322 | -105.46389 | 20751 ft | 408 kts | 116° |
| 2026-05-04 15:26 | 40.53910 | -105.39758 | 19802 ft | 396 kts | 116° |
| 2026-05-04 15:27 | 40.52735 | -105.36562 | 19350 ft | 391 kts | 116° |
| 2026-05-04 15:27 | 40.50425 | -105.30241 | 18511 ft | 376 kts | 115° |
| 2026-05-04 15:28 | 40.48276 | -105.24363 | 17651 ft | 363 kts | 115° |
| 2026-05-04 15:28 | 40.47190 | -105.21394 | 17174 ft | 358 kts | 115° |
| 2026-05-04 15:28 | 40.45191 | -105.15514 | 16334 ft | 344 kts | 108° |
| 2026-05-04 15:29 | 40.44482 | -105.12564 | 15929 ft | 334 kts | 105° |
| 2026-05-04 15:30 | 40.42019 | -105.01525 | 14449 ft | 305 kts | 106° |
| 2026-05-04 15:30 | 40.40175 | -104.93843 | 13820 ft | 292 kts | 106° |
| 2026-05-04 15:31 | 40.38988 | -104.88898 | 13795 ft | 286 kts | 106° |
| 2026-05-04 15:31 | 40.38397 | -104.86413 | 13655 ft | 284 kts | 106° |
| 2026-05-04 15:32 | 40.36739 | -104.79457 | 13215 ft | 279 kts | 106° |
| 2026-05-04 15:32 | 40.35502 | -104.74726 | 12948 ft | 273 kts | 122° |
| 2026-05-04 15:33 | 40.32564 | -104.71571 | 12318 ft | 283 kts | 148° |
| 2026-05-04 15:34 | 40.27307 | -104.68050 | 11293 ft | 287 kts | 178° |
| 2026-05-04 15:34 | 40.25310 | -104.68045 | 10934 ft | 287 kts | 185° |
| 2026-05-04 15:34 | 40.21394 | -104.68324 | 10195 ft | 276 kts | 185° |
| 2026-05-04 15:35 | 40.17615 | -104.68402 | 9725 ft | 259 kts | 181° |
| 2026-05-04 15:35 | 40.15853 | -104.68379 | 9767 ft | 248 kts | 181° |
| 2026-05-04 15:35 | 40.14195 | -104.68362 | 9733 ft | 247 kts | 181° |
| 2026-05-04 15:36 | 40.10658 | -104.68394 | 9260 ft | 259 kts | 183° |
| 2026-05-04 15:36 | 40.08856 | -104.68458 | 8932 ft | 261 kts | 183° |
| 2026-05-04 15:36 | 40.07058 | -104.68504 | 8588 ft | 262 kts | 182° |
| 2026-05-04 15:37 | 40.05239 | -104.68505 | 8203 ft | 259 kts | 182° |
| 2026-05-04 15:37 | 40.03463 | -104.68499 | 8004 ft | 248 kts | 182° |
| 2026-05-04 15:37 | 40.01775 | -104.68516 | 7649 ft | 237 kts | 183° |
| 2026-05-04 15:37 | 40.00183 | -104.68561 | 7363 ft | 219 kts | 184° |
| 2026-05-04 15:38 | 39.98707 | -104.68600 | 7030 ft | 205 kts | 184° |
| 2026-05-04 15:38 | 39.97337 | -104.68609 | 6924 ft | 185 kts | 183° |
| 2026-05-04 15:38 | 39.96102 | -104.68606 | 6722 ft | 166 kts | 183° |
| 2026-05-04 15:38 | 39.95034 | -104.68602 | 6543 ft | 148 kts | 184° |
| 2026-05-04 15:39 | 39.94000 | -104.68617 | 6304 ft | 149 kts | 185° |
| 2026-05-04 15:39 | 39.92965 | -104.68640 | 6111 ft | 148 kts | 185° |
| 2026-05-04 15:39 | 39.90890 | -104.68661 | 5690 ft | 149 kts | 182° |
| 2026-05-04 15:40 | 39.89860 | -104.68678 | 5447 ft | 148 kts | 183° |
| 2026-05-04 15:40 | 39.88892 | -104.68690 | 5358 ft | 120 kts | 180° |
| 2026-05-04 15:40 | 39.88199 | -104.68701 | 5359 ft | 89 kts | 181° |
| 2026-05-04 15:40 | 39.87657 | -104.68706 | 5364 ft | 70 kts | 180° |
| 2026-05-04 15:41 | 39.87205 | -104.68710 | 5356 ft | 60 kts | 180° |
| 2026-05-04 15:41 | 39.86826 | -104.68715 | 5361 ft | 51 kts | 180° |
| 2026-05-04 15:41 | 39.86508 | -104.68719 | 5367 ft | 30 kts | 179° |
| 2026-05-04 15:41 | 39.86428 | -104.68615 | 5367 ft | 18 kts | 91° |
| 2026-05-04 15:42 | 39.86380 | -104.68505 | 5366 ft | 15 kts | 183° |
| 2026-05-04 15:42 | 39.86276 | -104.68509 | 5365 ft | 16 kts | 181° |
| 2026-05-04 15:42 | 39.86157 | -104.68509 | 5362 ft | 18 kts | 180° |
| 2026-05-04 15:42 | 39.86040 | -104.68483 | 5363 ft | 17 kts | 122° |
| 2026-05-04 15:43 | 39.86031 | -104.68323 | 5373 ft | 19 kts | 91° |
| 2026-05-04 15:43 | 39.86040 | -104.68185 | 5384 ft | 17 kts | 65° |
| 2026-05-04 15:43 | 39.86068 | -104.67949 | 5385 ft | 35 kts | 90° |
| 2026-05-04 15:43 | 39.86066 | -104.67633 | 5385 ft | 35 kts | 91° |
| 2026-05-04 15:44 | 39.86065 | -104.67346 | 5385 ft | 30 kts | 90° |
| 2026-05-04 15:44 | 39.86064 | -104.67081 | 5385 ft | 28 kts | 92° |
| 2026-05-04 15:44 | 39.86061 | -104.66882 | 5385 ft | 10 kts | 93° |
| 2026-05-04 15:44 | 39.86058 | -104.66817 | 5385 ft | 7 kts | 94° |
| 2026-05-04 15:45 | 39.86038 | -104.66800 | 5382 ft | 7 kts | 184° |
| 2026-05-04 15:45 | 39.85957 | -104.66800 | 5385 ft | 12 kts | 180° |
| 2026-05-04 15:45 | 39.85944 | -104.66800 | 5385 ft | 0 kts | 179° |
| 2026-05-04 15:46 | 39.85938 | -104.66800 | 5385 ft | 0 kts | 182° |